createdAt,value
2022-11-25T00:02:15.308Z,63.09
2022-11-25T00:05:02.385Z,62.94
2022-11-25T00:07:52.100Z,62.77
2022-11-25T00:10:39.546Z,62.76
2022-11-25T00:13:26.253Z,62.80
2022-11-25T00:16:16.172Z,62.85
2022-11-25T00:19:04.604Z,63.36
2022-11-25T00:21:51.808Z,63.40
2022-11-25T00:24:38.527Z,63.40
2022-11-25T00:27:25.910Z,63.16
2022-11-25T00:30:13.565Z,63.12
2022-11-25T00:33:00.934Z,63.02
2022-11-25T00:35:48.975Z,62.94
2022-11-25T00:38:36.429Z,62.63
2022-11-25T00:41:41.925Z,62.67
2022-11-25T00:44:40.192Z,62.81
2022-11-25T00:47:29.538Z,62.76
2022-11-25T00:50:17.200Z,62.82
2022-11-25T00:53:05.423Z,62.85
2022-11-25T00:56:10.246Z,62.82
2022-11-25T00:58:57.543Z,62.95
2022-11-25T01:01:44.797Z,63.14
2022-11-25T01:04:31.673Z,63.19
2022-11-25T01:07:19.433Z,63.13
2022-11-25T01:10:09.238Z,63.04
2022-11-25T01:12:58.295Z,62.98
2022-11-25T01:15:45.100Z,62.87
2022-11-25T01:18:33.198Z,62.89
2022-11-25T01:21:22.096Z,62.95
2022-11-25T01:24:09.842Z,63.04
2022-11-25T01:26:58.168Z,63.00
2022-11-25T01:29:45.583Z,62.91
2022-11-25T01:32:33.334Z,62.85
2022-11-25T01:35:20.723Z,62.82
2022-11-25T01:38:07.667Z,62.72
2022-11-25T01:40:55.040Z,62.84
2022-11-25T01:43:43.515Z,62.90
2022-11-25T01:46:37.233Z,62.88
2022-11-25T01:49:30.284Z,62.96
2022-11-25T01:52:21.666Z,62.90
2022-11-25T01:55:13.942Z,62.80
2022-11-25T01:58:07.075Z,62.79
2022-11-25T02:00:55.633Z,62.88
2022-11-25T02:03:46.204Z,62.86
2022-11-25T02:06:39.976Z,62.89
2022-11-25T02:09:28.589Z,63.00
2022-11-25T02:12:17.993Z,63.02
2022-11-25T02:15:06.837Z,63.02
2022-11-25T02:17:55.707Z,63.04
2022-11-25T02:20:43.327Z,63.12
2022-11-25T02:23:41.074Z,62.98
2022-11-25T02:26:30.773Z,63.06
2022-11-25T02:29:17.420Z,63.05
2022-11-25T02:32:05.319Z,63.08
2022-11-25T02:34:52.302Z,63.04
2022-11-25T02:37:39.446Z,63.08
2022-11-25T02:40:28.647Z,63.13
2022-11-25T02:43:18.022Z,62.97
2022-11-25T02:46:07.691Z,62.91
2022-11-25T02:49:12.220Z,62.91
2022-11-25T02:52:00.554Z,62.97
2022-11-25T02:54:49.366Z,62.98
2022-11-25T02:57:36.321Z,63.06
2022-11-25T03:00:24.820Z,63.08
2022-11-25T03:03:12.497Z,63.10
2022-11-25T03:05:59.738Z,63.53
2022-11-25T03:08:46.676Z,63.65
2022-11-25T03:11:51.469Z,63.79
2022-11-25T03:14:39.426Z,63.91
2022-11-25T03:17:28.700Z,63.78
2022-11-25T03:20:16.195Z,63.63
2022-11-25T03:23:03.526Z,63.49
2022-11-25T03:25:50.829Z,63.32
2022-11-25T03:28:37.947Z,63.21
2022-11-25T03:31:24.899Z,63.22
2022-11-25T03:34:13.465Z,63.00
2022-11-25T03:37:00.812Z,62.83
2022-11-25T03:39:48.517Z,62.93
2022-11-25T03:42:35.835Z,62.99
2022-11-25T03:45:23.220Z,62.88
2022-11-25T03:48:10.178Z,62.81
2022-11-25T03:50:59.132Z,62.70
2022-11-25T03:53:47.253Z,62.65
2022-11-25T03:56:34.988Z,62.75
2022-11-25T03:59:22.014Z,62.98
2022-11-25T04:02:10.762Z,63.08
2022-11-25T04:04:58.159Z,63.15
2022-11-25T04:07:46.420Z,63.11
2022-11-25T04:10:33.842Z,63.08
2022-11-25T04:13:19.772Z,63.00
2022-11-25T04:16:06.912Z,63.06
2022-11-25T04:18:53.671Z,62.87
2022-11-25T04:21:41.126Z,62.77
2022-11-25T04:24:29.752Z,62.73
2022-11-25T04:27:20.542Z,62.88
2022-11-25T04:30:10.447Z,63.04
2022-11-25T04:32:58.799Z,62.84
2022-11-25T04:35:46.201Z,62.88
2022-11-25T04:38:33.517Z,62.84
2022-11-25T04:41:22.780Z,62.93
2022-11-25T04:44:10.075Z,63.04
2022-11-25T04:46:57.771Z,62.98
2022-11-25T04:49:45.211Z,62.99
2022-11-25T04:52:35.302Z,63.19
2022-11-25T04:55:30.559Z,63.62
2022-11-25T04:58:40.041Z,63.45
2022-11-25T05:01:27.021Z,63.25
2022-11-25T05:04:14.973Z,63.15
2022-11-25T05:07:02.391Z,63.36
2022-11-25T05:09:49.610Z,63.61
2022-11-25T05:12:37.541Z,63.77
2022-11-25T05:15:26.173Z,64.30
2022-11-25T05:18:13.499Z,64.34
2022-11-25T05:21:03.347Z,63.99
2022-11-25T05:23:55.673Z,64.25
2022-11-25T05:26:42.888Z,64.58
2022-11-25T05:29:29.826Z,64.71
2022-11-25T05:32:18.482Z,64.27
2022-11-25T05:35:06.245Z,64.46
2022-11-25T05:37:53.193Z,64.56
2022-11-25T05:40:41.140Z,64.26
2022-11-25T05:43:28.643Z,63.99
2022-11-25T05:46:16.611Z,64.09
2022-11-25T05:49:05.040Z,64.14
2022-11-25T05:51:52.753Z,64.00
2022-11-25T05:54:40.299Z,64.07
2022-11-25T05:57:29.168Z,64.23
2022-11-25T06:00:16.578Z,64.07
2022-11-25T06:03:04.116Z,63.79
2022-11-25T06:05:52.571Z,63.71
2022-11-25T06:08:40.308Z,63.64
2022-11-25T06:11:27.602Z,63.64
2022-11-25T06:14:14.672Z,63.49
2022-11-25T06:17:01.663Z,63.24
2022-11-25T06:19:48.966Z,63.26
2022-11-25T06:22:37.510Z,63.31
2022-11-25T06:25:24.751Z,63.47
2022-11-25T06:28:13.332Z,63.59
2022-11-25T06:31:06.599Z,63.74
2022-11-25T06:33:54.795Z,63.62
2022-11-25T06:36:42.027Z,63.56
2022-11-25T06:39:30.246Z,63.56
2022-11-25T06:42:17.562Z,63.59
2022-11-25T06:45:04.624Z,63.58
2022-11-25T06:47:51.828Z,63.62
2022-11-25T06:50:38.747Z,63.87
2022-11-25T06:53:26.483Z,63.80
2022-11-25T06:56:16.474Z,63.75
2022-11-25T06:59:04.598Z,63.69
2022-11-25T07:01:51.768Z,63.65
2022-11-25T07:04:40.167Z,63.68
2022-11-25T07:07:27.143Z,63.71
2022-11-25T07:10:14.659Z,63.73
2022-11-25T07:13:02.932Z,63.80
2022-11-25T07:15:50.377Z,63.76
2022-11-25T07:18:38.870Z,63.73
2022-11-25T07:21:26.276Z,63.61
2022-11-25T07:24:14.859Z,63.63
2022-11-25T07:27:02.131Z,63.78
2022-11-25T07:30:10.152Z,63.90
2022-11-25T07:32:58.411Z,64.62
2022-11-25T07:35:45.585Z,64.47
2022-11-25T07:38:33.010Z,64.28
2022-11-25T07:41:21.650Z,64.28
2022-11-25T07:44:09.397Z,64.10
2022-11-25T07:46:59.633Z,64.04
2022-11-25T07:49:46.953Z,64.18
2022-11-25T07:52:33.678Z,64.33
2022-11-25T07:55:20.930Z,64.38
2022-11-25T07:58:07.837Z,64.51
2022-11-25T08:00:55.171Z,64.70
2022-11-25T08:03:44.556Z,64.62
2022-11-25T08:06:31.374Z,64.36
2022-11-25T08:09:21.771Z,63.89
2022-11-25T08:12:09.246Z,64.06
2022-11-25T08:14:56.428Z,63.75
2022-11-25T08:17:43.219Z,63.52
2022-11-25T08:20:32.002Z,63.55
2022-11-25T08:23:19.120Z,63.60
2022-11-25T08:26:06.908Z,63.58
2022-11-25T08:28:53.915Z,63.76
2022-11-25T08:31:41.329Z,63.55
2022-11-25T08:34:27.889Z,63.73
2022-11-25T08:37:17.198Z,63.94
2022-11-25T08:40:04.849Z,63.77
2022-11-25T08:42:52.273Z,63.81
2022-11-25T08:45:40.538Z,63.85
2022-11-25T08:48:27.562Z,63.52
2022-11-25T08:51:16.521Z,63.01
2022-11-25T08:54:05.900Z,62.61
2022-11-25T08:56:52.995Z,62.54
2022-11-25T08:59:40.579Z,63.03
2022-11-25T09:02:27.761Z,63.08
2022-11-25T09:05:18.189Z,63.58
2022-11-25T09:08:05.736Z,63.37
2022-11-25T09:10:54.368Z,63.56
2022-11-25T09:13:41.115Z,62.97
2022-11-25T09:16:28.628Z,63.00
2022-11-25T09:19:15.703Z,63.29
2022-11-25T09:22:03.112Z,63.12
2022-11-25T09:24:50.349Z,63.30
2022-11-25T09:27:39.027Z,62.79
2022-11-25T09:30:26.809Z,62.78
2022-11-25T09:33:14.359Z,63.01
2022-11-25T09:36:01.654Z,62.61
2022-11-25T09:38:48.923Z,62.65
2022-11-25T09:42:15.362Z,62.70
2022-11-25T09:45:32.264Z,63.15
2022-11-25T09:48:42.221Z,62.72
2022-11-25T09:51:39.325Z,62.42
2022-11-25T09:54:30.971Z,62.52
2022-11-25T09:57:27.167Z,62.79
2022-11-25T10:00:19.117Z,62.85
2022-11-25T10:03:14.241Z,62.37
2022-11-25T10:06:06.219Z,62.78
2022-11-25T10:08:57.213Z,62.93
2022-11-25T10:11:51.495Z,62.76
2022-11-25T10:14:43.906Z,62.85
2022-11-25T10:17:39.299Z,62.77
2022-11-25T10:20:30.571Z,61.75
2022-11-25T10:23:27.772Z,62.60
2022-11-25T10:26:17.827Z,61.91
2022-11-25T10:29:21.227Z,62.61
2022-11-25T10:32:23.847Z,62.52
2022-11-25T10:35:22.027Z,62.44
2022-11-25T10:38:19.024Z,62.77
2022-11-25T10:41:07.112Z,62.43
2022-11-25T10:43:54.755Z,62.73
2022-11-25T10:47:13.045Z,62.65
2022-11-25T10:50:07.969Z,62.44
2022-11-25T10:53:00.951Z,62.72
2022-11-25T10:56:00.176Z,62.67
2022-11-25T10:58:47.147Z,62.44
2022-11-25T11:01:34.341Z,62.26
2022-11-25T11:04:21.592Z,62.89
2022-11-25T11:07:10.261Z,62.42
2022-11-25T11:10:17.634Z,62.91
2022-11-25T11:13:06.492Z,62.11
2022-11-25T11:15:54.798Z,62.88
2022-11-25T11:18:43.077Z,62.67
2022-11-25T11:21:32.542Z,62.15
2022-11-25T11:24:29.868Z,62.49
2022-11-25T11:27:24.153Z,62.12
2022-11-25T11:30:16.297Z,61.96
2022-11-25T11:33:05.862Z,61.97
2022-11-25T11:35:56.678Z,62.36
2022-11-25T11:38:50.790Z,62.03
2022-11-25T11:41:45.155Z,61.73
2022-11-25T11:44:41.482Z,61.56
2022-11-25T11:47:37.827Z,61.01
2022-11-25T11:50:30.444Z,60.99
2022-11-25T11:53:24.015Z,60.86
2022-11-25T11:56:34.803Z,60.57
2022-11-25T11:59:49.947Z,61.15
2022-11-25T12:02:50.951Z,60.16
2022-11-25T12:05:38.165Z,60.65
2022-11-25T12:08:32.040Z,61.08
2022-11-25T12:11:23.919Z,60.95
2022-11-25T12:14:16.082Z,60.15
2022-11-25T12:17:09.812Z,60.72
2022-11-25T12:20:03.069Z,60.66
2022-11-25T12:22:59.085Z,60.86
2022-11-25T12:25:48.670Z,60.99
2022-11-25T12:28:41.497Z,60.63
2022-11-25T12:31:32.563Z,60.81
2022-11-25T12:34:28.857Z,60.45
2022-11-25T12:37:23.934Z,60.35
2022-11-25T12:40:17.475Z,60.15
2022-11-25T12:43:16.750Z,60.05
2022-11-25T12:46:14.653Z,60.01
2022-11-25T12:49:03.000Z,59.87
2022-11-25T12:52:16.832Z,60.34
2022-11-25T12:55:12.444Z,58.54
2022-11-25T12:58:34.102Z,59.36
2022-11-25T13:01:57.011Z,58.72
2022-11-25T13:05:40.212Z,58.94
2022-11-25T13:08:52.684Z,58.32
2022-11-25T13:12:07.215Z,59.36
2022-11-25T13:15:19.453Z,58.94
2022-11-25T13:18:14.222Z,59.04
2022-11-25T13:21:08.660Z,59.69
2022-11-25T13:23:58.953Z,58.64
2022-11-25T13:26:50.806Z,59.87
2022-11-25T13:30:03.257Z,59.54
2022-11-25T13:32:51.997Z,59.27
2022-11-25T13:35:49.238Z,60.10
2022-11-25T13:38:39.048Z,60.33
2022-11-25T13:41:37.307Z,60.47
2022-11-25T13:44:32.238Z,60.42
2022-11-25T13:47:34.159Z,60.43
2022-11-25T13:50:28.957Z,60.45
2022-11-25T13:53:33.880Z,60.75
2022-11-25T13:56:30.776Z,60.82
2022-11-25T13:59:37.187Z,60.60
2022-11-25T14:02:49.576Z,60.35
2022-11-25T14:05:59.505Z,60.14
2022-11-25T14:08:56.474Z,60.43
2022-11-25T14:12:08.867Z,60.48
2022-11-25T14:15:12.741Z,60.36
2022-11-25T14:19:12.067Z,60.63
2022-11-25T14:22:07.736Z,60.64
2022-11-25T14:25:01.825Z,60.41
2022-11-25T14:28:03.466Z,60.64
2022-11-25T14:30:54.241Z,60.65
2022-11-25T14:33:49.750Z,60.76
2022-11-25T14:36:41.948Z,60.82
2022-11-25T14:39:35.230Z,61.17
2022-11-25T14:42:24.327Z,61.76
2022-11-25T14:45:24.207Z,61.76
2022-11-25T14:48:15.814Z,61.84
2022-11-25T14:51:06.884Z,61.97
2022-11-25T14:53:54.712Z,62.05
2022-11-25T14:56:41.915Z,62.10
2022-11-25T14:59:29.499Z,62.28
2022-11-25T15:02:30.638Z,62.63
2022-11-25T15:05:20.559Z,62.88
2022-11-25T15:08:12.283Z,63.37
2022-11-25T15:11:02.406Z,63.16
2022-11-25T15:13:55.826Z,62.97
2022-11-25T15:16:43.907Z,63.27
2022-11-25T15:19:36.077Z,63.15
2022-11-25T15:22:24.683Z,63.81
2022-11-25T15:25:15.962Z,63.46
2022-11-25T15:28:03.073Z,63.89
2022-11-25T15:30:57.728Z,63.83
2022-11-25T15:33:45.418Z,63.96
2022-11-25T15:36:33.773Z,63.90
2022-11-25T15:39:29.518Z,63.81
2022-11-25T15:42:20.680Z,64.98
2022-11-25T15:45:20.915Z,64.35
2022-11-25T15:48:08.214Z,64.47
2022-11-25T15:51:02.884Z,65.08
2022-11-25T15:53:55.532Z,64.69
2022-11-25T15:56:48.917Z,64.67
2022-11-25T15:59:51.259Z,64.61
2022-11-25T16:02:50.378Z,64.70
2022-11-25T16:05:38.654Z,64.24
2022-11-25T16:08:37.324Z,64.15
2022-11-25T16:11:29.255Z,64.96
2022-11-25T16:14:25.084Z,64.32
2022-11-25T16:17:13.664Z,64.52
2022-11-25T16:20:00.623Z,64.76
2022-11-25T16:22:48.264Z,64.52
2022-11-25T16:25:35.001Z,64.33
2022-11-25T16:28:25.371Z,64.24
2022-11-25T16:31:17.297Z,64.38
2022-11-25T16:34:14.383Z,64.77
2022-11-25T16:37:01.084Z,64.69
2022-11-25T16:39:48.009Z,64.50
2022-11-25T16:42:35.203Z,64.20
2022-11-25T16:45:26.077Z,64.28
2022-11-25T16:48:17.266Z,64.68
2022-11-25T16:51:06.267Z,64.63
2022-11-25T16:53:53.220Z,64.53
2022-11-25T16:56:42.899Z,64.44
2022-11-25T16:59:33.846Z,64.51
2022-11-25T17:02:23.463Z,64.51
2022-11-25T17:05:18.192Z,65.05
2022-11-25T17:08:05.847Z,65.03
2022-11-25T17:10:56.285Z,64.70
2022-11-25T17:13:45.746Z,64.55
2022-11-25T17:16:32.815Z,64.34
2022-11-25T17:19:21.254Z,64.65
2022-11-25T17:22:17.706Z,64.80
2022-11-25T17:25:05.148Z,64.73
2022-11-25T17:27:53.197Z,64.51
2022-11-25T17:30:40.731Z,65.22
2022-11-25T17:33:27.780Z,64.77
2022-11-25T17:36:16.266Z,64.91
2022-11-25T17:39:03.171Z,64.96
2022-11-25T17:41:51.833Z,65.44
2022-11-25T17:44:40.144Z,65.06
2022-11-25T17:47:27.587Z,64.81
2022-11-25T17:50:21.181Z,64.92
2022-11-25T17:53:10.355Z,65.09
2022-11-25T17:55:57.263Z,65.12
2022-11-25T17:58:44.514Z,64.82
2022-11-25T18:01:31.646Z,64.92
2022-11-25T18:04:23.438Z,64.85
2022-11-25T18:07:11.735Z,65.43
2022-11-25T18:10:00.229Z,65.05
2022-11-25T18:12:50.002Z,64.98
2022-11-25T18:15:38.539Z,65.32
2022-11-25T18:18:26.484Z,65.32
2022-11-25T18:21:14.131Z,65.24
2022-11-25T18:24:00.742Z,65.86
2022-11-25T18:26:53.014Z,65.62
2022-11-25T18:29:40.110Z,65.79
2022-11-25T18:32:27.883Z,65.26
2022-11-25T18:35:20.899Z,65.50
2022-11-25T18:38:08.307Z,65.58
2022-11-25T18:40:56.061Z,65.59
2022-11-25T18:43:45.124Z,66.16
2022-11-25T18:46:37.334Z,65.96
2022-11-25T18:49:24.860Z,66.42
2022-11-25T18:52:18.128Z,66.00
2022-11-25T18:55:07.148Z,65.78
2022-11-25T18:57:57.596Z,66.50
2022-11-25T19:00:53.311Z,66.15
2022-11-25T19:03:47.837Z,66.64
2022-11-25T19:06:36.468Z,66.18
2022-11-25T19:09:27.717Z,65.66
2022-11-25T19:12:20.666Z,65.80
2022-11-25T19:15:08.905Z,66.18
2022-11-25T19:18:00.577Z,65.89
2022-11-25T19:20:47.692Z,65.91
2022-11-25T19:23:36.133Z,65.42
2022-11-25T19:26:27.518Z,65.68
2022-11-25T19:29:19.832Z,65.98
2022-11-25T19:32:14.163Z,66.04
2022-11-25T19:35:06.415Z,65.53
2022-11-25T19:37:53.578Z,65.88
2022-11-25T19:40:41.360Z,66.04
2022-11-25T19:43:28.531Z,65.62
2022-11-25T19:46:29.707Z,65.40
2022-11-25T19:49:19.850Z,65.70
2022-11-25T19:52:16.258Z,65.60
2022-11-25T19:55:03.692Z,65.77
2022-11-25T19:57:51.853Z,65.36
2022-11-25T20:00:39.138Z,65.74
2022-11-25T20:03:30.021Z,65.69
2022-11-25T20:06:19.479Z,66.40
2022-11-25T20:09:12.572Z,65.86
2022-11-25T20:12:06.995Z,66.39
2022-11-25T20:14:58.480Z,66.46
2022-11-25T20:17:49.121Z,65.91
2022-11-25T20:20:39.035Z,65.73
2022-11-25T20:23:30.610Z,66.32
2022-11-25T20:26:27.638Z,66.41
2022-11-25T20:29:17.521Z,66.02
2022-11-25T20:32:19.848Z,66.15
2022-11-25T20:35:08.521Z,66.35
2022-11-25T20:37:58.108Z,65.99
2022-11-25T20:40:47.274Z,65.54
2022-11-25T20:43:39.056Z,65.66
2022-11-25T20:46:29.931Z,65.48
2022-11-25T20:49:22.933Z,65.72
2022-11-25T20:52:16.554Z,65.55
2022-11-25T20:55:15.226Z,65.76
2022-11-25T20:58:02.443Z,65.99
2022-11-25T21:00:57.068Z,65.44
2022-11-25T21:03:46.109Z,65.43
2022-11-25T21:06:40.759Z,65.11
2022-11-25T21:09:34.595Z,65.03
2022-11-25T21:12:21.784Z,64.89
2022-11-25T21:15:14.923Z,65.11
2022-11-25T21:18:03.357Z,65.35
2022-11-25T21:20:52.142Z,65.43
2022-11-25T21:23:39.636Z,65.54
2022-11-25T21:26:27.760Z,65.13
2022-11-25T21:29:17.057Z,65.32
2022-11-25T21:32:04.049Z,65.00
2022-11-25T21:34:52.977Z,65.59
2022-11-25T21:37:40.784Z,65.49
2022-11-25T21:40:34.351Z,65.87
2022-11-25T21:43:25.346Z,65.80
2022-11-25T21:46:14.939Z,65.55
2022-11-25T21:49:01.696Z,65.95
2022-11-25T21:51:50.292Z,65.74
2022-11-25T21:54:37.607Z,65.66
2022-11-25T21:57:28.863Z,65.41
2022-11-25T22:00:22.332Z,65.79
2022-11-25T22:03:16.045Z,65.86
2022-11-25T22:06:02.592Z,65.92
2022-11-25T22:08:51.953Z,65.48
2022-11-25T22:11:40.611Z,65.35
2022-11-25T22:14:34.601Z,65.09
2022-11-25T22:17:22.104Z,65.56
2022-11-25T22:20:24.672Z,65.21
2022-11-25T22:23:16.689Z,65.21
2022-11-25T22:26:06.003Z,65.21
2022-11-25T22:28:54.193Z,65.25
2022-11-25T22:31:41.683Z,65.51
2022-11-25T22:34:28.506Z,65.87
2022-11-25T22:37:17.846Z,65.88
2022-11-25T22:40:05.192Z,66.43
2022-11-25T22:42:56.310Z,66.13
2022-11-25T22:45:43.166Z,66.32
2022-11-25T22:48:33.088Z,66.21
2022-11-25T22:51:25.823Z,66.47
2022-11-25T22:54:13.138Z,67.29
2022-11-25T22:57:00.433Z,66.87
2022-11-25T22:59:48.996Z,67.67
2022-11-25T23:02:37.040Z,67.67
2022-11-25T23:05:31.939Z,66.88
2022-11-25T23:08:22.304Z,66.87
2022-11-25T23:11:17.048Z,66.60
2022-11-25T23:14:03.883Z,66.40
2022-11-25T23:16:52.808Z,66.30
2022-11-25T23:19:39.826Z,66.88
2022-11-25T23:22:27.031Z,66.68
2022-11-25T23:25:15.606Z,66.31
2022-11-25T23:28:02.897Z,66.26
2022-11-25T23:30:53.017Z,66.21
2022-11-25T23:33:44.223Z,66.97
2022-11-25T23:36:39.914Z,66.53
2022-11-25T23:39:28.045Z,66.22
2022-11-25T23:42:18.236Z,66.28
2022-11-25T23:45:07.915Z,66.84
2022-11-25T23:47:56.982Z,66.55
2022-11-25T23:50:45.896Z,66.24
2022-11-25T23:53:34.598Z,66.71
2022-11-25T23:56:22.058Z,66.58
2022-11-25T23:59:13.698Z,66.50
